Flight Track Log - Related Links

Times and Time Zones

All times are in EDT time to prevent confusion due to time zone crossing. See the SWA253 flight status page for this flight to view local times or setup timezone preferences in your user account.

Time Position Orientation Groundspeed Altitude Reporting Facility
EDT Latitude Longitude Course Direction KTS MPH feet Rate Location/Type
Thu 11:13:50 PM 37.7253 -122.2503 122° Southeast 170 196 1,000  Level Oakland Center
Thu 11:14:51 PM 37.7564 -122.3064 305° West 207 238 3,100 2,508 Climbing Oakland Center
Thu 11:15:52 PM 37.7372 -122.3817 252° West 231 266 6,100 2,819 Climbing Oakland Center
Thu 11:16:14 PM 37.7000 -122.3833 182° South 274 315 7,000 2,780 Climbing Northern Cal TRACON
Thu 11:17:14 PM 37.6167 -122.3667 171° South 305 351 9,900 1,800 Climbing Northern Cal TRACON
Thu 11:17:54 PM 37.5725 -122.3658 179° South 314 361 10,000 59 Climbing Oakland Center
Thu 11:18:56 PM 37.4758 -122.3511 173° South 349 402 10,000 1,463 Level Oakland Center
Thu 11:19:00 PM 37.2507 -122.2847 122° Southeast  Level FlightAware Approximate
Thu 11:19:57 PM 37.3733 -122.2928 156° South 348 400 13,000  Level Oakland Center
Thu 11:20:58 PM 37.2997 -122.2111 139° Southeast 354 407 15,400 2,262 Climbing Oakland Center
Thu 11:21:59 PM 37.2219 -122.1261 139° Southeast 370 426 17,600 2,213 Climbing Oakland Center
Thu 11:23:00 PM 37.1419 -122.0367 138° Southeast 384 442 19,900 1,918 Climbing Oakland Center
Thu 11:24:01 PM 37.0581 -121.9464 139° Southeast 399 459 21,500 1,598 Climbing Oakland Center
Thu 11:26:04 PM 36.8811 -121.7528 139° Southeast 426 490 24,800 1,565 Climbing Oakland Center
Thu 11:27:05 PM 36.7836 -121.6494 140° Southeast 443 510 26,300 1,672 Climbing Oakland Center
Thu 11:28:06 PM 36.6908 -121.5469 138° Southeast 446 513 28,200 1,525 Climbing Oakland Center
Thu 11:29:07 PM 36.5956 -121.4450 139° Southeast 451 519 29,400 1,328 Climbing Oakland Center
Thu 11:30:08 PM 36.4994 -121.3397 139° Southeast 459 528 30,900 1,230 Climbing Oakland Center
Thu 11:31:09 PM 36.4017 -121.2350 139° Southeast 462 532 31,900 443 Climbing Oakland Center
Thu 11:32:10 PM 36.2811 -121.1053 139° Southeast 477 549 31,800 -689 Descending Oakland Center
Thu 11:33:11 PM 36.1817 -120.9992 139° Southeast 475 547 30,500 -1,180 Descending Oakland Center
Thu 11:34:12 PM 36.0867 -120.8989 140° Southeast 456 525 29,400 -738 Descending Oakland Center
Thu 11:35:13 PM 35.9939 -120.8006 139° Southeast 444 511 29,000 -195 Descending Oakland Center
Thu 11:36:15 PM 35.8994 -120.7017 140° Southeast 445 512 29,000  Level Oakland Center
Thu 11:37:16 PM 35.8025 -120.5992 139° Southeast 457 526 29,000  Level Oakland Center
Thu 11:38:17 PM 35.7036 -120.4958 140° Southeast 463 533 29,000  Level Oakland Center
Thu 11:39:18 PM 35.6031 -120.3911 140° Southeast 471 542 29,000 -541 Level Oakland Center
Thu 11:40:19 PM 35.5042 -120.2897 140° Southeast 458 527 27,900 -1,180 Descending Oakland Center
Thu 11:41:20 PM 35.4167 -120.1983 140° Southeast 430 495 26,600 -1,131 Descending Oakland Center
Thu 11:42:21 PM 35.3244 -120.1031 140° Southeast 412 474 25,600 -923 Descending Oakland Center
Thu 11:42:38 PM 35.3081 -120.0856 139° Southeast 410 472 25,400 -1,063 Descending Los Angeles Center
Thu 11:43:40 PM 35.2053 -119.9803 140° Southeast 401 461 24,200 -732 Descending Los Angeles Center
Thu 11:44:41 PM 35.1228 -119.8961 140° Southeast 390 449 23,900 -244 Descending Los Angeles Center
Thu 11:45:43 PM 35.0503 -119.8103 136° Southeast 369 425 23,700 -532 Descending Los Angeles Center
Thu 11:46:45 PM 34.9828 -119.7167 131° Southeast 368 423 22,800 -871 Descending Los Angeles Center
Thu 11:47:47 PM 34.9119 -119.6197 132° Southeast 380 437 21,900 -878 Descending Los Angeles Center
Thu 11:48:48 PM 34.8372 -119.5183 132° Southeast 399 459 21,000 -1,463 Descending Los Angeles Center
Thu 11:49:50 PM 34.7614 -119.4175 132° Southeast 405 466 18,900 -2,323 Descending Los Angeles Center
Thu 11:50:52 PM 34.6736 -119.3017 133° Southeast 389 448 16,200 -2,226 Descending Los Angeles Center
Thu 11:51:54 PM 34.6097 -119.2169 132° Southeast 369 425 14,300 -1,902 Descending Los Angeles Center
Thu 11:52:55 PM 34.5425 -119.1283 133° Southeast 359 413 12,300 -1,422 Descending Los Angeles Center
Thu 11:54:09 PM 34.4789 -119.0425 132° Southeast 334 384 11,100 -838 Descending Los Angeles Center
Thu 11:55:11 PM 34.4258 -118.9642 129° Southeast 300 345 10,400 -1,065 Descending Los Angeles Center
Thu 11:56:13 PM 34.3622 -118.8603 127° Southeast 274 315 8,900 -1,210 Descending Los Angeles Center
Thu 11:57:15 PM 34.3139 -118.7908 130° Southeast 270 311 7,900 -1,210 Descending Los Angeles Center
Thu 11:58:17 PM 34.2678 -118.7186 128° Southeast 271 312 6,400 -1,452 Descending Los Angeles Center
Thu 11:59:19 PM 34.2222 -118.6425 126° Southeast 277 319 4,900 -927 Descending Los Angeles Center
Fri 12:00:20 AM 34.2011 -118.5678 109° East 254 292 4,500 -390 Descending Los Angeles Center
Fri 12:01:22 AM 34.1994 -118.4989 92° East 217 250 4,100 -1,113 Descending Los Angeles Center
Fri 12:02:24 AM 34.1994 -118.4508 90° East 159 183 2,200 -1,403 Descending Los Angeles Center
Fri 12:03:26 AM 34.1983 -118.3972 91° East 142 163 1,200 -683 Descending Los Angeles Center
Fri 12:04:27 AM 34.1978 -118.3578 91° East 139 160 800 -393 Descending Los Angeles Center
Fri 12:06:00 AM 34.2000 -118.3500 151° Southeast  Level FlightAware Approximate
Fri 12:13:00 AM 34.2007 -118.3587 151° Southeast  Level Estimated

Login

Don't have an account? Register now (free) for customized features, flight alerts, and more!